createdAt,value
2022-10-20T00:01:12.656Z,0.30
2022-10-20T00:03:40.917Z,0.60
2022-10-20T00:06:13.159Z,0.50
2022-10-20T00:08:43.181Z,0.30
2022-10-20T00:11:13.739Z,0.20
2022-10-20T00:13:43.720Z,0.40
2022-10-20T00:16:12.220Z,0.30
2022-10-20T00:18:41.144Z,0.30
2022-10-20T00:21:13.822Z,0.27
2022-10-20T00:23:42.229Z,0.30
2022-10-20T00:26:13.139Z,0.40
2022-10-20T00:28:42.525Z,0.30
2022-10-20T00:31:10.826Z,0.20
2022-10-20T00:33:39.156Z,0.30
2022-10-20T00:36:09.641Z,0.40
2022-10-20T00:38:39.315Z,0.30
2022-10-20T00:41:07.921Z,0.20
2022-10-20T00:43:49.131Z,0.40
2022-10-20T00:46:20.689Z,0.40
2022-10-20T00:48:51.457Z,0.30
2022-10-20T00:51:23.854Z,0.30
2022-10-20T00:53:58.428Z,0.30
2022-10-20T00:56:26.864Z,0.30
2022-10-20T00:58:55.895Z,0.50
2022-10-20T01:01:24.196Z,0.30
2022-10-20T01:03:52.941Z,0.40
2022-10-20T01:06:23.611Z,0.30
2022-10-20T01:08:55.384Z,0.20
2022-10-20T01:11:35.314Z,0.47
2022-10-20T01:14:21.748Z,0.40
2022-10-20T01:17:00.200Z,0.30
2022-10-20T01:20:04.810Z,0.50
2022-10-20T01:23:07.765Z,0.30
2022-10-20T01:25:51.817Z,1.87
2022-10-20T01:28:28.717Z,0.50
2022-10-20T01:31:01.293Z,0.20
2022-10-20T01:33:38.161Z,1.60
2022-10-20T01:36:12.689Z,0.40
2022-10-20T01:38:45.435Z,0.43
2022-10-20T01:41:23.480Z,0.40
2022-10-20T01:43:55.507Z,0.30
2022-10-20T01:46:26.631Z,0.30
2022-10-20T01:48:55.732Z,0.30
2022-10-20T01:51:23.961Z,0.30
2022-10-20T01:53:52.258Z,0.20
2022-10-20T01:56:28.485Z,0.57
2022-10-20T01:59:26.461Z,0.50
2022-10-20T02:02:07.513Z,0.30
2022-10-20T02:04:48.844Z,0.20
2022-10-20T02:07:25.433Z,0.30
2022-10-20T02:10:00.906Z,0.50
2022-10-20T02:12:33.926Z,0.87
2022-10-20T02:15:04.889Z,0.50
2022-10-20T02:17:37.013Z,0.93
2022-10-20T02:20:07.574Z,0.30
2022-10-20T02:22:36.810Z,0.30
2022-10-20T02:25:05.821Z,0.40
2022-10-20T02:27:37.392Z,0.20
2022-10-20T02:30:09.971Z,0.60
2022-10-20T02:32:40.493Z,0.87
2022-10-20T02:35:12.741Z,0.40
2022-10-20T02:37:41.028Z,0.50
2022-10-20T02:40:10.277Z,0.20
2022-10-20T02:42:40.806Z,0.20
2022-10-20T02:45:11.655Z,0.20
2022-10-20T02:47:40.056Z,0.97
2022-10-20T02:50:09.477Z,0.30
2022-10-20T02:52:38.195Z,0.70
2022-10-20T02:55:07.406Z,0.40
2022-10-20T02:57:36.064Z,0.30
2022-10-20T03:00:05.995Z,0.93
2022-10-20T03:02:35.924Z,0.70
2022-10-20T03:05:04.655Z,0.30
2022-10-20T03:07:33.128Z,0.30
2022-10-20T03:10:01.484Z,0.50
2022-10-20T03:12:31.531Z,0.20
2022-10-20T03:15:00.700Z,0.40
2022-10-20T03:17:28.996Z,0.30
2022-10-20T03:19:59.616Z,0.30
2022-10-20T03:25:01.128Z,0.20
2022-10-20T03:27:29.387Z,0.20
2022-10-20T03:29:57.655Z,0.20
2022-10-20T03:32:26.069Z,0.40
2022-10-20T03:34:54.333Z,0.40
2022-10-20T03:37:24.136Z,0.50
2022-10-20T03:39:52.408Z,0.20
2022-10-20T03:42:20.735Z,0.40
2022-10-20T03:44:48.920Z,0.30
2022-10-20T03:47:17.209Z,0.40
2022-10-20T03:49:45.562Z,0.53
2022-10-20T03:52:13.796Z,0.80
2022-10-20T03:54:43.445Z,0.83
2022-10-20T03:57:11.716Z,0.43
2022-10-20T03:59:39.948Z,0.40
2022-10-20T04:02:08.291Z,0.83
2022-10-20T04:04:36.602Z,0.70
2022-10-20T04:07:04.879Z,0.30
2022-10-20T04:09:33.155Z,0.50
2022-10-20T04:12:02.874Z,0.53
2022-10-20T04:14:31.247Z,0.47
2022-10-20T04:16:59.521Z,1.00
2022-10-20T04:19:27.823Z,0.40
2022-10-20T04:21:56.092Z,0.77
2022-10-20T04:24:24.344Z,0.40
2022-10-20T04:26:52.654Z,0.63
2022-10-20T04:29:22.439Z,0.30
2022-10-20T04:31:50.830Z,1.90
2022-10-20T04:34:19.344Z,0.40
2022-10-20T04:36:47.586Z,0.50
2022-10-20T04:39:16.162Z,0.70
2022-10-20T04:41:44.553Z,0.50
2022-10-20T04:44:12.909Z,0.90
2022-10-20T04:46:42.648Z,0.60
2022-10-20T04:49:11.117Z,3.33
2022-10-20T04:51:39.448Z,1.87
2022-10-20T04:54:07.738Z,0.30
2022-10-20T04:56:36.050Z,0.40
2022-10-20T04:59:08.407Z,0.40
2022-10-20T05:01:40.115Z,0.60
2022-10-20T05:04:10.984Z,1.73
2022-10-20T05:06:39.264Z,0.40
2022-10-20T05:09:09.349Z,0.83
2022-10-20T05:11:38.715Z,0.80
2022-10-20T05:14:07.816Z,1.83
2022-10-20T05:16:36.577Z,1.17
2022-10-20T05:19:04.824Z,1.57
2022-10-20T05:21:34.758Z,3.90
2022-10-20T05:24:05.400Z,2.73
2022-10-20T05:26:37.470Z,6.23
2022-10-20T05:29:07.493Z,3.77
2022-10-20T05:31:39.491Z,4.63
2022-10-20T05:34:08.213Z,1.47
2022-10-20T05:36:38.329Z,1.10
2022-10-20T05:39:06.926Z,2.20
2022-10-20T05:41:38.716Z,1.73
2022-10-20T05:44:09.792Z,0.83
2022-10-20T05:46:41.704Z,1.37
2022-10-20T05:49:14.230Z,2.30
2022-10-20T05:51:44.424Z,1.53
2022-10-20T05:54:14.282Z,1.30
2022-10-20T05:56:42.903Z,2.97
2022-10-20T05:59:11.904Z,2.60
2022-10-20T06:01:48.310Z,1.80
2022-10-20T06:04:18.829Z,1.20
2022-10-20T06:06:49.472Z,1.83
2022-10-20T06:09:18.439Z,1.33
2022-10-20T06:11:46.798Z,1.13
2022-10-20T06:14:15.351Z,1.10
2022-10-20T06:16:43.684Z,1.87
2022-10-20T06:19:12.361Z,0.60
2022-10-20T06:21:40.663Z,1.83
2022-10-20T06:24:11.278Z,0.57
2022-10-20T06:26:40.869Z,0.53
2022-10-20T06:29:12.453Z,0.50
2022-10-20T06:31:43.538Z,1.77
2022-10-20T06:34:15.172Z,1.03
2022-10-20T06:36:44.057Z,0.50
2022-10-20T06:39:16.564Z,0.90
2022-10-20T06:41:47.710Z,2.27
2022-10-20T06:44:15.964Z,2.10
2022-10-20T06:46:44.261Z,1.07
2022-10-20T06:49:13.219Z,1.23
2022-10-20T06:51:42.130Z,1.40
2022-10-20T06:54:10.584Z,3.30
2022-10-20T06:56:40.778Z,1.53
2022-10-20T06:59:09.390Z,0.73
2022-10-20T07:01:39.784Z,2.00
2022-10-20T07:04:11.505Z,2.00
2022-10-20T07:06:41.821Z,1.20
2022-10-20T07:09:14.826Z,1.97
2022-10-20T07:11:45.077Z,1.87
2022-10-20T07:14:14.714Z,2.80
2022-10-20T07:16:43.114Z,2.90
2022-10-20T07:19:11.545Z,2.77
2022-10-20T07:21:45.629Z,2.67
2022-10-20T07:24:14.464Z,2.00
2022-10-20T07:26:44.368Z,1.20
2022-10-20T07:29:13.964Z,2.43
2022-10-20T07:31:44.182Z,1.53
2022-10-20T07:34:25.206Z,1.30
2022-10-20T07:36:55.275Z,2.27
2022-10-20T07:39:23.822Z,1.20
2022-10-20T07:41:53.566Z,1.83
2022-10-20T07:44:21.922Z,1.23
2022-10-20T07:46:50.264Z,0.50
2022-10-20T07:49:43.483Z,2.07
2022-10-20T07:52:07.722Z,1.93
2022-10-20T07:54:35.965Z,1.63
2022-10-20T07:57:05.735Z,0.77
2022-10-20T07:59:34.096Z,1.10
2022-10-20T08:02:02.607Z,1.87
2022-10-20T08:04:31.799Z,1.10
2022-10-20T08:07:00.843Z,1.00
2022-10-20T08:09:29.275Z,0.67
2022-10-20T08:11:57.643Z,1.23
2022-10-20T08:14:31.961Z,1.20
2022-10-20T08:17:03.119Z,0.77
2022-10-20T08:19:49.198Z,0.80
2022-10-20T08:22:19.296Z,0.90
2022-10-20T08:24:47.700Z,0.50
2022-10-20T08:27:16.036Z,1.17
2022-10-20T08:29:54.935Z,0.90
2022-10-20T08:32:34.235Z,0.70
2022-10-20T08:35:02.688Z,1.73
2022-10-20T08:37:31.620Z,0.73
2022-10-20T08:40:00.105Z,0.80
2022-10-20T08:42:28.606Z,0.93
2022-10-20T08:45:01.521Z,0.57
2022-10-20T08:47:34.517Z,0.70
2022-10-20T08:50:04.705Z,1.60
2022-10-20T08:52:33.907Z,0.67
2022-10-20T08:55:06.184Z,0.57
2022-10-20T08:57:36.955Z,1.70
2022-10-20T09:00:17.580Z,2.43
2022-10-20T09:02:46.233Z,0.70
2022-10-20T09:05:19.120Z,1.70
2022-10-20T09:07:50.076Z,1.00
2022-10-20T09:10:32.715Z,0.93
2022-10-20T09:13:01.642Z,2.60
2022-10-20T09:15:31.304Z,0.77
2022-10-20T09:18:02.312Z,0.90
2022-10-20T09:20:35.126Z,1.17
2022-10-20T09:23:07.869Z,0.90
2022-10-20T09:25:46.292Z,0.77
2022-10-20T09:28:24.305Z,0.83
2022-10-20T09:30:54.167Z,0.63
2022-10-20T09:33:30.076Z,0.50
2022-10-20T09:36:05.530Z,0.93
2022-10-20T09:38:36.715Z,0.87
2022-10-20T09:41:11.903Z,0.50
2022-10-20T09:43:42.668Z,0.50
2022-10-20T09:46:13.210Z,0.73
2022-10-20T09:48:48.017Z,0.90
2022-10-20T09:51:19.895Z,0.97
2022-10-20T09:53:56.844Z,0.80
2022-10-20T09:56:27.240Z,0.40
2022-10-20T09:58:57.072Z,0.47
2022-10-20T10:01:26.978Z,0.97
2022-10-20T10:04:00.099Z,0.50
2022-10-20T10:06:31.541Z,1.10
2022-10-20T10:09:02.042Z,0.60
2022-10-20T10:11:36.500Z,0.50
2022-10-20T10:14:06.299Z,0.87
2022-10-20T10:16:45.436Z,0.70
2022-10-20T10:19:20.998Z,0.50
2022-10-20T10:21:55.133Z,0.87
2022-10-20T10:24:40.462Z,0.97
2022-10-20T10:27:21.769Z,0.70
2022-10-20T10:29:50.573Z,0.70
2022-10-20T10:32:25.148Z,0.70
2022-10-20T10:35:09.445Z,0.50
2022-10-20T10:37:40.110Z,0.50
2022-10-20T10:40:16.440Z,0.40
2022-10-20T10:43:01.471Z,0.37
2022-10-20T10:45:46.970Z,0.90
2022-10-20T10:48:54.431Z,0.30
2022-10-20T10:51:32.896Z,0.30
2022-10-20T10:54:14.248Z,0.60
2022-10-20T10:56:47.309Z,0.70
2022-10-20T10:59:22.518Z,0.97
2022-10-20T11:02:36.079Z,0.50
2022-10-20T11:05:23.553Z,0.43
2022-10-20T11:08:02.366Z,0.57
2022-10-20T11:10:38.075Z,0.73
2022-10-20T11:13:27.131Z,0.50
2022-10-20T11:16:07.543Z,0.97
2022-10-20T11:18:55.934Z,0.40
2022-10-20T11:21:35.790Z,0.40
2022-10-20T11:24:36.860Z,0.40
2022-10-20T11:27:11.180Z,0.70
2022-10-20T11:29:43.544Z,1.13
2022-10-20T11:32:23.066Z,0.90
2022-10-20T11:35:00.915Z,0.50
2022-10-20T11:37:33.153Z,0.50
2022-10-20T11:40:14.858Z,0.40
2022-10-20T11:42:47.912Z,0.57
2022-10-20T11:45:38.877Z,0.37
2022-10-20T11:48:15.380Z,0.30
2022-10-20T11:50:45.352Z,1.00
2022-10-20T11:53:40.216Z,0.73
2022-10-20T11:56:29.560Z,0.43
2022-10-20T11:59:22.883Z,0.30
2022-10-20T12:02:13.579Z,0.40
2022-10-20T12:05:02.252Z,0.60
2022-10-20T12:08:05.771Z,0.40
2022-10-20T12:10:55.274Z,0.50
2022-10-20T12:13:35.096Z,0.30
2022-10-20T12:16:03.804Z,0.30
2022-10-20T12:18:33.944Z,0.40
2022-10-20T12:21:05.046Z,0.50
2022-10-20T12:24:05.811Z,0.40
2022-10-20T12:27:04.408Z,0.60
2022-10-20T12:30:07.329Z,0.40
2022-10-20T12:32:39.897Z,0.90
2022-10-20T12:35:31.952Z,0.40
2022-10-20T12:38:04.407Z,0.90
2022-10-20T12:40:35.354Z,0.30
2022-10-20T12:43:07.868Z,0.40
2022-10-20T12:45:41.962Z,0.70
2022-10-20T12:48:21.285Z,0.80
2022-10-20T12:50:52.142Z,0.60
2022-10-20T12:53:26.804Z,0.40
2022-10-20T12:55:59.796Z,0.50
2022-10-20T12:58:31.620Z,0.40
2022-10-20T13:01:06.678Z,0.70
2022-10-20T13:03:44.374Z,0.40
2022-10-20T13:06:43.289Z,0.67
2022-10-20T13:09:23.144Z,0.70
2022-10-20T13:12:06.171Z,0.40
2022-10-20T13:14:48.036Z,1.40
2022-10-20T13:17:29.751Z,0.50
2022-10-20T13:20:02.610Z,0.60
2022-10-20T13:22:39.132Z,0.63
2022-10-20T13:25:16.044Z,0.40
2022-10-20T13:27:44.306Z,1.20
2022-10-20T13:30:22.692Z,1.30
2022-10-20T13:33:17.851Z,0.67
2022-10-20T13:35:55.841Z,0.97
2022-10-20T13:38:31.490Z,0.57
2022-10-20T13:41:05.182Z,0.60
2022-10-20T13:43:42.816Z,0.90
2022-10-20T13:46:39.377Z,0.60
2022-10-20T13:49:24.509Z,0.53
2022-10-20T13:51:56.824Z,0.40
2022-10-20T13:54:29.146Z,0.40
2022-10-20T13:56:58.291Z,0.50
2022-10-20T13:59:28.335Z,0.67
2022-10-20T14:02:01.331Z,1.50
2022-10-20T14:04:32.505Z,1.03
2022-10-20T14:07:05.160Z,0.60
2022-10-20T14:09:33.509Z,1.13
2022-10-20T14:12:05.914Z,0.30
2022-10-20T14:14:35.278Z,0.40
2022-10-20T14:17:07.218Z,0.40
2022-10-20T14:19:36.476Z,0.67
2022-10-20T14:22:14.820Z,0.40
2022-10-20T14:24:45.632Z,0.40
2022-10-20T14:27:18.930Z,0.60
2022-10-20T14:29:47.631Z,0.93
2022-10-20T14:32:20.278Z,0.40
2022-10-20T14:34:57.620Z,0.67
2022-10-20T14:37:32.257Z,0.40
2022-10-20T14:40:02.603Z,0.60
2022-10-20T14:42:33.407Z,0.60
2022-10-20T14:45:07.428Z,0.70
2022-10-20T14:47:43.365Z,0.37
2022-10-20T14:50:23.937Z,0.30
2022-10-20T14:52:54.316Z,0.80
2022-10-20T14:55:38.234Z,0.60
2022-10-20T14:58:06.638Z,0.70
2022-10-20T15:00:37.283Z,0.40
2022-10-20T15:03:08.616Z,0.73
2022-10-20T15:05:41.497Z,0.40
2022-10-20T15:08:12.790Z,0.40
2022-10-20T15:10:41.148Z,0.30
2022-10-20T15:13:26.529Z,0.47
2022-10-20T15:15:57.302Z,0.40
2022-10-20T15:18:27.802Z,0.50
2022-10-20T15:20:56.645Z,0.57
2022-10-20T15:23:27.022Z,0.50
2022-10-20T15:25:59.395Z,0.57
2022-10-20T15:28:32.800Z,0.40
2022-10-20T15:31:02.235Z,0.53
2022-10-20T15:33:32.822Z,0.30
2022-10-20T15:36:01.996Z,0.30
2022-10-20T15:38:30.666Z,0.30
2022-10-20T15:43:35.034Z,0.67
2022-10-20T15:46:04.460Z,0.30
2022-10-20T15:48:34.119Z,0.30
2022-10-20T15:51:02.470Z,0.30
2022-10-20T15:53:30.790Z,0.80
2022-10-20T15:55:59.159Z,0.40
2022-10-20T15:58:27.485Z,0.50
2022-10-20T16:00:55.812Z,0.33
2022-10-20T16:03:24.121Z,0.43
2022-10-20T16:05:53.886Z,0.43
2022-10-20T16:08:22.114Z,1.03
2022-10-20T16:10:50.382Z,1.30
2022-10-20T16:13:21.243Z,2.30
2022-10-20T16:15:49.497Z,1.93
2022-10-20T16:18:17.765Z,1.70
2022-10-20T16:20:46.064Z,2.13
2022-10-20T16:23:15.732Z,1.13
2022-10-20T16:25:44.782Z,2.10
2022-10-20T16:28:13.226Z,1.57
2022-10-20T16:30:42.097Z,1.13
2022-10-20T16:33:11.339Z,1.37
2022-10-20T16:35:43.400Z,3.03
2022-10-20T16:38:12.116Z,1.07
2022-10-20T16:40:41.797Z,2.23
2022-10-20T16:43:10.309Z,2.13
2022-10-20T16:45:41.047Z,1.77
2022-10-20T16:48:09.349Z,2.73
2022-10-20T16:50:42.105Z,2.77
2022-10-20T16:53:10.591Z,0.80
2022-10-20T16:55:41.301Z,1.00
2022-10-20T16:58:09.597Z,1.03
2022-10-20T17:00:37.976Z,0.63
2022-10-20T17:03:06.222Z,0.47
2022-10-20T17:05:34.524Z,1.37
2022-10-20T17:08:02.944Z,1.80
2022-10-20T17:10:31.340Z,0.90
2022-10-20T17:13:00.952Z,1.50
2022-10-20T17:15:30.136Z,1.03
2022-10-20T17:17:58.349Z,1.47
2022-10-20T17:20:26.761Z,2.73
2022-10-20T17:22:56.385Z,2.13
2022-10-20T17:25:24.766Z,3.93
2022-10-20T17:27:53.016Z,2.10
2022-10-20T17:30:23.276Z,1.80
2022-10-20T17:32:51.556Z,1.17
2022-10-20T17:35:20.044Z,0.50
2022-10-20T17:37:48.257Z,0.33
2022-10-20T17:42:46.253Z,0.73
2022-10-20T17:45:14.576Z,0.70
2022-10-20T17:47:47.773Z,0.93
2022-10-20T17:50:16.204Z,0.90
2022-10-20T17:52:44.526Z,0.97
2022-10-20T17:55:13.994Z,1.10
2022-10-20T17:57:44.767Z,1.07
2022-10-20T18:00:22.428Z,0.30
2022-10-20T18:02:56.641Z,0.40
2022-10-20T18:05:25.146Z,0.40
2022-10-20T18:07:53.804Z,0.40
2022-10-20T18:12:56.743Z,0.53
2022-10-20T18:15:25.212Z,0.53
2022-10-20T18:17:53.470Z,1.23
2022-10-20T18:20:23.491Z,0.30
2022-10-20T18:22:55.551Z,0.57
2022-10-20T18:25:23.891Z,0.50
2022-10-20T18:27:54.316Z,0.30
2022-10-20T18:30:22.538Z,0.30
2022-10-20T18:32:53.014Z,0.33
2022-10-20T18:35:23.657Z,0.30
2022-10-20T18:37:57.550Z,0.33
2022-10-20T18:40:25.921Z,0.50
2022-10-20T18:42:55.514Z,0.33
2022-10-20T18:45:25.980Z,0.50
2022-10-20T18:47:56.855Z,0.43
2022-10-20T18:50:26.830Z,0.30
2022-10-20T18:52:57.200Z,0.30
2022-10-20T18:55:34.363Z,0.50
2022-10-20T18:58:03.761Z,0.30
2022-10-20T19:00:32.160Z,0.93
2022-10-20T19:03:01.771Z,0.53
2022-10-20T19:05:32.001Z,0.40
2022-10-20T19:08:00.534Z,0.87
2022-10-20T19:10:29.020Z,0.40
2022-10-20T19:12:58.417Z,0.70
2022-10-20T19:15:26.922Z,0.40
2022-10-20T19:17:59.352Z,0.40
2022-10-20T19:20:32.617Z,0.30
2022-10-20T19:23:00.945Z,0.30
2022-10-20T19:25:29.236Z,1.10
2022-10-20T19:27:57.714Z,0.50
2022-10-20T19:30:26.322Z,0.30
2022-10-20T19:32:55.132Z,0.30
2022-10-20T19:35:23.645Z,0.40
2022-10-20T19:37:53.294Z,0.30
2022-10-20T19:40:23.905Z,0.33
2022-10-20T19:42:53.304Z,0.30
2022-10-20T19:45:21.566Z,0.20
2022-10-20T19:47:50.048Z,0.30
2022-10-20T19:50:18.504Z,0.40
2022-10-20T19:52:48.082Z,0.30
2022-10-20T19:55:17.762Z,0.50
2022-10-20T19:57:46.300Z,0.20
2022-10-20T20:00:15.004Z,0.73
2022-10-20T20:02:43.667Z,1.50
2022-10-20T20:05:11.976Z,0.63
2022-10-20T20:07:40.635Z,0.53
2022-10-20T20:10:10.292Z,0.63
2022-10-20T20:12:39.944Z,0.30
2022-10-20T20:15:08.589Z,0.33
2022-10-20T20:17:37.092Z,0.30
2022-10-20T20:20:06.092Z,0.40
2022-10-20T20:22:34.295Z,0.33
2022-10-20T20:25:02.548Z,0.30
2022-10-20T20:27:30.790Z,0.50
2022-10-20T20:30:02.334Z,0.30
2022-10-20T20:32:32.277Z,0.30
2022-10-20T20:35:00.725Z,1.47
2022-10-20T20:37:28.966Z,0.30
2022-10-20T20:39:57.309Z,0.30
2022-10-20T20:42:25.539Z,0.30
2022-10-20T20:44:53.833Z,0.30
2022-10-20T20:47:23.517Z,0.27
2022-10-20T20:49:51.771Z,0.40
2022-10-20T20:52:20.117Z,0.30
2022-10-20T20:54:48.332Z,0.40
2022-10-20T20:57:16.630Z,0.40
2022-10-20T20:59:44.925Z,0.30
2022-10-20T21:02:13.168Z,0.20
2022-10-20T21:04:42.917Z,0.50
2022-10-20T21:07:11.181Z,0.40
2022-10-20T21:09:39.450Z,0.20
2022-10-20T21:12:07.790Z,0.90
2022-10-20T21:14:36.192Z,1.20
2022-10-20T21:17:04.488Z,0.50
2022-10-20T21:19:32.756Z,0.53
2022-10-20T21:22:02.480Z,0.30
2022-10-20T21:24:30.662Z,0.30
2022-10-20T21:26:58.913Z,0.47
2022-10-20T21:29:27.258Z,0.40
2022-10-20T21:31:56.265Z,0.30
2022-10-20T21:34:24.491Z,0.40
2022-10-20T21:36:52.751Z,0.40
2022-10-20T21:39:22.455Z,0.50
2022-10-20T21:41:51.092Z,0.30
2022-10-20T21:44:19.325Z,0.43
2022-10-20T21:46:50.180Z,0.30
2022-10-20T21:49:20.066Z,0.27
2022-10-20T21:51:52.411Z,0.33
2022-10-20T21:54:25.240Z,0.27
2022-10-20T21:56:54.345Z,0.43
2022-10-20T21:59:25.067Z,0.47
2022-10-20T22:01:55.075Z,0.20
2022-10-20T22:04:25.581Z,0.20
2022-10-20T22:06:53.844Z,0.40
2022-10-20T22:09:23.738Z,0.30
2022-10-20T22:11:55.374Z,0.30
2022-10-20T22:14:24.105Z,0.70
2022-10-20T22:16:52.398Z,0.30
2022-10-20T22:19:22.685Z,0.20
2022-10-20T22:21:52.993Z,0.30
2022-10-20T22:24:23.754Z,0.50
2022-10-20T22:26:53.639Z,0.30
2022-10-20T22:29:22.719Z,0.30
2022-10-20T22:31:51.764Z,0.40
2022-10-20T22:34:19.968Z,0.30
2022-10-20T22:36:48.544Z,0.67
2022-10-20T22:39:16.874Z,0.30
2022-10-20T22:41:46.575Z,0.30
2022-10-20T22:44:14.821Z,0.70
2022-10-20T22:46:43.310Z,0.30
2022-10-20T22:49:13.765Z,0.30
2022-10-20T22:51:42.032Z,0.30
2022-10-20T22:54:10.414Z,0.30
2022-10-20T22:56:38.679Z,0.40
2022-10-20T22:59:08.340Z,0.30
2022-10-20T23:01:36.608Z,0.30
2022-10-20T23:04:04.877Z,0.87
2022-10-20T23:06:33.136Z,0.40
2022-10-20T23:09:01.429Z,0.50
2022-10-20T23:11:30.402Z,0.30
2022-10-20T23:13:58.668Z,0.60
2022-10-20T23:16:28.546Z,0.30
2022-10-20T23:18:56.872Z,0.30
2022-10-20T23:21:25.127Z,0.70
2022-10-20T23:23:53.523Z,0.33
2022-10-20T23:26:21.839Z,0.40
2022-10-20T23:28:50.154Z,0.30
2022-10-20T23:31:33.428Z,0.30
2022-10-20T23:34:03.361Z,0.70
2022-10-20T23:36:34.234Z,0.30
2022-10-20T23:39:05.122Z,0.30
2022-10-20T23:41:33.399Z,0.20
2022-10-20T23:44:01.643Z,0.27
2022-10-20T23:46:32.382Z,0.30
2022-10-20T23:49:03.399Z,0.47
2022-10-20T23:51:31.840Z,0.30
2022-10-20T23:54:00.114Z,0.60
2022-10-20T23:56:28.519Z,0.30
2022-10-20T23:58:56.755Z,0.20
